Airfield :
LOGIN :

Register | Disclaimer

   EN    FR    IT 

 










Legend :    VFR   Marginal VFR   IFR   Intensive IFR   Very Intensive IFR
Visi :
Ceiling :
>= 8 km
>= 3000ft
5 to 8 km
1000 to 3000 ft
1500m to 5 km
500 to 1000 ft
800 to 1500m
200 to 500 ft
< 800m
< 200 ft
Symbols :   Thunderstorms  Fog  Heavy snow  Heavy precipitations  Wind > 20 kt
SIGMETs :     Misc.  Thunderstorms  Icing  Turbulence  Mountain Waves  Volcanic Ashes






- Airport Elevation : 20 ft


EBFN - Koksijde

CURRENT METAR :
  • 220304Z AUTO 28004KT 9999 SCT011/// BKN042/// 12/11 Q1022 GRN

EXPIRED METARs :
  • 220225Z AUTO 31005KT 9999 FEW009/// BKN039/// 12/11 Q1022 BLU
  • 220218Z AUTO 31006KT 9999 FEW010/// OVC039/// 12/11 Q1021 BLU
  • 220155Z AUTO 31007KT 9999 SCT010/// OVC041/// 12/12 Q1021 GRN
  • 220125Z AUTO 31007KT 9999 SCT013/// BKN044/// BKN067/// 13/12 Q1021 GRN
  • 220119Z AUTO 31008KT 9999 BKN007/// OVC067/// 13/12 Q1021 GRN
  • 220103Z AUTO 31009KT 9999 BKN006/// OVC031/// 13/12 Q1021 YLO
  • 220036Z AUTO 31008KT 3400 -RA FEW007/// BKN011/// 13/12 Q1021 YLO
  • 220015Z AUTO 30007KT 2700 -RA OVC010/// 13/12 Q1021 YLO

TAF TAF EBFN
Valid from the 21 at 19:00 until the 22 at 07:00 UTC


211541Z 2119/2207 25008KT 6000 SCT012 BKN015
TEMPO 2119/2122 31015KT 4000 -RA -RADZ SCT007 BKN012
TEMPO 2119/2122 2000 RA RADZ SCT004 BKN008
PROB40
TEMPO 2122/2207 VRB03KT 3000 -SHRA BR BKN010



MET'MAP, your aeronautical weather chart ! - Copyright ORBIFLY December 2007 - Disclaimer

ORBIFLY MET'MAP TEAM :

Programming & Development : Alexandra Zaïnal
Concept & Development : Baudouin d'Aumeries
Co-Development & Prog : Marc-Olivier Méhu
Technical & hardware support : Manuel Goepfert

Contact : metmap@orbifly.com




SOURCES & CREDITS :

   NOAA